sensor_id;sensor_type;location;lat;lon;timestamp;P1;durP1;ratioP1;P2;durP2;ratioP2
41446;SDS011;27185;52.040;4.490;2023-12-22T00:00:42;27.25;;;3.72;;
41446;SDS011;27185;52.040;4.490;2023-12-22T00:03:27;25.88;;;3.28;;
41446;SDS011;27185;52.040;4.490;2023-12-22T00:06:13;19.80;;;3.10;;
41446;SDS011;27185;52.040;4.490;2023-12-22T00:08:58;24.80;;;4.35;;
41446;SDS011;27185;52.040;4.490;2023-12-22T00:11:44;21.55;;;3.28;;
41446;SDS011;27185;52.040;4.490;2023-12-22T00:14:30;15.57;;;1.95;;
41446;SDS011;27185;52.040;4.490;2023-12-22T00:17:18;26.50;;;2.58;;
41446;SDS011;27185;52.040;4.490;2023-12-22T00:20:04;22.75;;;3.03;;
41446;SDS011;27185;52.040;4.490;2023-12-22T00:22:50;10.65;;;2.45;;
41446;SDS011;27185;52.040;4.490;2023-12-22T00:25:36;17.40;;;2.65;;
41446;SDS011;27185;52.040;4.490;2023-12-22T00:28:21;12.68;;;2.60;;
41446;SDS011;27185;52.040;4.490;2023-12-22T00:31:07;17.95;;;3.97;;
41446;SDS011;27185;52.040;4.490;2023-12-22T00:33:53;18.48;;;2.58;;
41446;SDS011;27185;52.040;4.490;2023-12-22T00:36:39;19.90;;;2.45;;
41446;SDS011;27185;52.040;4.490;2023-12-22T00:39:24;13.18;;;2.20;;
41446;SDS011;27185;52.040;4.490;2023-12-22T00:42:10;13.32;;;2.20;;
41446;SDS011;27185;52.040;4.490;2023-12-22T00:44:55;15.00;;;2.58;;
41446;SDS011;27185;52.040;4.490;2023-12-22T00:47:41;18.95;;;2.33;;
41446;SDS011;27185;52.040;4.490;2023-12-22T00:50:27;14.43;;;2.10;;
41446;SDS011;27185;52.040;4.490;2023-12-22T00:53:12;11.50;;;2.28;;
41446;SDS011;27185;52.040;4.490;2023-12-22T00:55:59;17.48;;;2.17;;
41446;SDS011;27185;52.040;4.490;2023-12-22T00:58:45;17.90;;;1.92;;
41446;SDS011;27185;52.040;4.490;2023-12-22T01:01:31;18.23;;;2.90;;
41446;SDS011;27185;52.040;4.490;2023-12-22T01:04:17;22.70;;;2.72;;
41446;SDS011;27185;52.040;4.490;2023-12-22T01:07:02;19.38;;;2.80;;
41446;SDS011;27185;52.040;4.490;2023-12-22T01:09:48;14.93;;;1.95;;
41446;SDS011;27185;52.040;4.490;2023-12-22T01:12:34;18.83;;;2.65;;
41446;SDS011;27185;52.040;4.490;2023-12-22T01:15:19;13.38;;;2.60;;
41446;SDS011;27185;52.040;4.490;2023-12-22T01:18:05;13.05;;;2.50;;
41446;SDS011;27185;52.040;4.490;2023-12-22T01:20:50;19.25;;;2.28;;
41446;SDS011;27185;52.040;4.490;2023-12-22T01:23:40;14.60;;;2.08;;
41446;SDS011;27185;52.040;4.490;2023-12-22T01:26:25;14.18;;;2.17;;
41446;SDS011;27185;52.040;4.490;2023-12-22T01:29:11;19.33;;;2.53;;
41446;SDS011;27185;52.040;4.490;2023-12-22T01:31:56;23.17;;;2.28;;
41446;SDS011;27185;52.040;4.490;2023-12-22T01:34:42;16.65;;;2.47;;
41446;SDS011;27185;52.040;4.490;2023-12-22T01:37:27;17.00;;;3.38;;
41446;SDS011;27185;52.040;4.490;2023-12-22T01:40:13;14.40;;;2.20;;
41446;SDS011;27185;52.040;4.490;2023-12-22T01:42:59;14.15;;;1.92;;
41446;SDS011;27185;52.040;4.490;2023-12-22T01:45:55;19.70;;;2.47;;
41446;SDS011;27185;52.040;4.490;2023-12-22T01:48:54;17.67;;;2.70;;
41446;SDS011;27185;52.040;4.490;2023-12-22T01:51:39;15.43;;;2.00;;
41446;SDS011;27185;52.040;4.490;2023-12-22T01:54:27;18.45;;;2.38;;
41446;SDS011;27185;52.040;4.490;2023-12-22T01:57:13;13.73;;;2.75;;
41446;SDS011;27185;52.040;4.490;2023-12-22T02:00:02;17.67;;;2.95;;
41446;SDS011;27185;52.040;4.490;2023-12-22T02:02:48;17.98;;;2.92;;
41446;SDS011;27185;52.040;4.490;2023-12-22T02:05:34;20.48;;;3.28;;
41446;SDS011;27185;52.040;4.490;2023-12-22T02:08:19;12.50;;;2.38;;
41446;SDS011;27185;52.040;4.490;2023-12-22T02:11:07;13.63;;;1.67;;
41446;SDS011;27185;52.040;4.490;2023-12-22T02:13:53;17.55;;;2.25;;
41446;SDS011;27185;52.040;4.490;2023-12-22T02:16:50;21.05;;;2.92;;
41446;SDS011;27185;52.040;4.490;2023-12-22T02:19:42;24.90;;;2.95;;
41446;SDS011;27185;52.040;4.490;2023-12-22T02:22:29;18.58;;;3.00;;
41446;SDS011;27185;52.040;4.490;2023-12-22T02:25:14;17.52;;;2.70;;
41446;SDS011;27185;52.040;4.490;2023-12-22T02:28:03;15.05;;;2.60;;
41446;SDS011;27185;52.040;4.490;2023-12-22T02:33:39;15.13;;;1.90;;
41446;SDS011;27185;52.040;4.490;2023-12-22T02:36:27;13.40;;;2.40;;
41446;SDS011;27185;52.040;4.490;2023-12-22T02:39:15;11.30;;;1.95;;
41446;SDS011;27185;52.040;4.490;2023-12-22T02:42:03;9.93;;;1.70;;
41446;SDS011;27185;52.040;4.490;2023-12-22T02:44:50;13.52;;;1.73;;
41446;SDS011;27185;52.040;4.490;2023-12-22T02:47:37;15.55;;;1.70;;
41446;SDS011;27185;52.040;4.490;2023-12-22T02:50:24;11.30;;;2.08;;
41446;SDS011;27185;52.040;4.490;2023-12-22T02:53:09;20.20;;;2.28;;
41446;SDS011;27185;52.040;4.490;2023-12-22T02:55:55;17.02;;;2.28;;
41446;SDS011;27185;52.040;4.490;2023-12-22T02:58:41;15.98;;;2.40;;
41446;SDS011;27185;52.040;4.490;2023-12-22T03:01:26;15.82;;;2.10;;
41446;SDS011;27185;52.040;4.490;2023-12-22T03:04:15;14.13;;;1.98;;
41446;SDS011;27185;52.040;4.490;2023-12-22T03:07:02;12.23;;;1.88;;
41446;SDS011;27185;52.040;4.490;2023-12-22T03:09:47;13.77;;;1.65;;
41446;SDS011;27185;52.040;4.490;2023-12-22T03:12:33;18.30;;;2.30;;
41446;SDS011;27185;52.040;4.490;2023-12-22T03:15:18;15.13;;;2.03;;
41446;SDS011;27185;52.040;4.490;2023-12-22T03:18:04;11.43;;;1.83;;
41446;SDS011;27185;52.040;4.490;2023-12-22T03:20:50;14.48;;;1.73;;
41446;SDS011;27185;52.040;4.490;2023-12-22T03:23:35;10.88;;;1.90;;
41446;SDS011;27185;52.040;4.490;2023-12-22T03:26:21;17.33;;;2.53;;
41446;SDS011;27185;52.040;4.490;2023-12-22T03:29:06;19.92;;;2.30;;
41446;SDS011;27185;52.040;4.490;2023-12-22T03:31:52;11.15;;;1.70;;
41446;SDS011;27185;52.040;4.490;2023-12-22T03:34:38;12.40;;;2.20;;
41446;SDS011;27185;52.040;4.490;2023-12-22T03:37:23;19.80;;;2.60;;
41446;SDS011;27185;52.040;4.490;2023-12-22T03:40:09;15.45;;;2.00;;
41446;SDS011;27185;52.040;4.490;2023-12-22T03:42:55;11.27;;;1.60;;
41446;SDS011;27185;52.040;4.490;2023-12-22T03:45:40;11.48;;;1.98;;
41446;SDS011;27185;52.040;4.490;2023-12-22T03:48:26;13.98;;;2.53;;
41446;SDS011;27185;52.040;4.490;2023-12-22T03:51:12;15.25;;;2.45;;
41446;SDS011;27185;52.040;4.490;2023-12-22T03:53:59;14.30;;;1.77;;
41446;SDS011;27185;52.040;4.490;2023-12-22T03:56:45;13.05;;;2.00;;
41446;SDS011;27185;52.040;4.490;2023-12-22T03:59:31;12.05;;;1.70;;
41446;SDS011;27185;52.040;4.490;2023-12-22T04:02:17;13.30;;;1.88;;
41446;SDS011;27185;52.040;4.490;2023-12-22T04:05:03;12.98;;;1.30;;
41446;SDS011;27185;52.040;4.490;2023-12-22T04:07:49;17.10;;;1.80;;
41446;SDS011;27185;52.040;4.490;2023-12-22T04:10:34;11.98;;;1.73;;
41446;SDS011;27185;52.040;4.490;2023-12-22T04:13:20;14.73;;;1.85;;
41446;SDS011;27185;52.040;4.490;2023-12-22T04:16:06;11.70;;;1.50;;
41446;SDS011;27185;52.040;4.490;2023-12-22T04:18:52;13.73;;;1.70;;
41446;SDS011;27185;52.040;4.490;2023-12-22T04:21:38;13.45;;;1.58;;
41446;SDS011;27185;52.040;4.490;2023-12-22T04:24:23;14.57;;;2.20;;
41446;SDS011;27185;52.040;4.490;2023-12-22T04:27:09;13.02;;;2.17;;
41446;SDS011;27185;52.040;4.490;2023-12-22T04:29:55;13.38;;;2.22;;
41446;SDS011;27185;52.040;4.490;2023-12-22T04:32:40;13.18;;;1.48;;
41446;SDS011;27185;52.040;4.490;2023-12-22T04:35:26;15.65;;;1.63;;
41446;SDS011;27185;52.040;4.490;2023-12-22T04:38:12;13.45;;;2.30;;
41446;SDS011;27185;52.040;4.490;2023-12-22T04:40:57;16.50;;;2.75;;
41446;SDS011;27185;52.040;4.490;2023-12-22T04:43:43;14.40;;;2.17;;
41446;SDS011;27185;52.040;4.490;2023-12-22T04:46:29;22.80;;;2.95;;
41446;SDS011;27185;52.040;4.490;2023-12-22T04:49:15;14.93;;;2.92;;
41446;SDS011;27185;52.040;4.490;2023-12-22T04:52:00;15.43;;;2.40;;
41446;SDS011;27185;52.040;4.490;2023-12-22T04:54:46;13.50;;;2.10;;
41446;SDS011;27185;52.040;4.490;2023-12-22T04:57:32;14.50;;;2.35;;
41446;SDS011;27185;52.040;4.490;2023-12-22T05:00:18;13.63;;;2.42;;
41446;SDS011;27185;52.040;4.490;2023-12-22T05:03:03;16.95;;;2.92;;
41446;SDS011;27185;52.040;4.490;2023-12-22T05:05:49;11.93;;;2.38;;
41446;SDS011;27185;52.040;4.490;2023-12-22T05:08:35;12.05;;;2.03;;
41446;SDS011;27185;52.040;4.490;2023-12-22T05:11:21;14.32;;;1.70;;
41446;SDS011;27185;52.040;4.490;2023-12-22T05:14:07;15.02;;;2.30;;
41446;SDS011;27185;52.040;4.490;2023-12-22T05:16:52;22.75;;;2.60;;
41446;SDS011;27185;52.040;4.490;2023-12-22T05:19:40;16.45;;;3.65;;
41446;SDS011;27185;52.040;4.490;2023-12-22T05:22:26;20.60;;;2.13;;
41446;SDS011;27185;52.040;4.490;2023-12-22T05:25:14;28.08;;;2.83;;
41446;SDS011;27185;52.040;4.490;2023-12-22T05:28:00;21.08;;;2.70;;
41446;SDS011;27185;52.040;4.490;2023-12-22T05:30:46;18.75;;;3.15;;
41446;SDS011;27185;52.040;4.490;2023-12-22T05:33:32;27.02;;;4.10;;
41446;SDS011;27185;52.040;4.490;2023-12-22T05:36:18;24.48;;;4.47;;
41446;SDS011;27185;52.040;4.490;2023-12-22T05:39:03;23.42;;;3.65;;
41446;SDS011;27185;52.040;4.490;2023-12-22T05:42:01;26.67;;;4.28;;
41446;SDS011;27185;52.040;4.490;2023-12-22T05:47:34;26.17;;;4.57;;
41446;SDS011;27185;52.040;4.490;2023-12-22T05:50:20;22.10;;;3.67;;
41446;SDS011;27185;52.040;4.490;2023-12-22T05:53:11;32.50;;;5.50;;
41446;SDS011;27185;52.040;4.490;2023-12-22T05:55:56;31.13;;;4.55;;
41446;SDS011;27185;52.040;4.490;2023-12-22T05:58:42;35.70;;;5.88;;
41446;SDS011;27185;52.040;4.490;2023-12-22T06:01:28;33.63;;;5.82;;
41446;SDS011;27185;52.040;4.490;2023-12-22T06:04:13;35.75;;;4.88;;
41446;SDS011;27185;52.040;4.490;2023-12-22T06:06:59;30.08;;;7.00;;
41446;SDS011;27185;52.040;4.490;2023-12-22T06:09:44;33.58;;;5.20;;
41446;SDS011;27185;52.040;4.490;2023-12-22T06:12:30;38.45;;;6.20;;
41446;SDS011;27185;52.040;4.490;2023-12-22T06:15:16;32.50;;;5.65;;
41446;SDS011;27185;52.040;4.490;2023-12-22T06:18:01;39.45;;;6.53;;
41446;SDS011;27185;52.040;4.490;2023-12-22T06:20:47;36.55;;;6.10;;
41446;SDS011;27185;52.040;4.490;2023-12-22T06:23:33;37.97;;;6.57;;
41446;SDS011;27185;52.040;4.490;2023-12-22T06:26:18;36.95;;;5.78;;
41446;SDS011;27185;52.040;4.490;2023-12-22T06:29:04;33.35;;;6.03;;
41446;SDS011;27185;52.040;4.490;2023-12-22T06:31:49;37.65;;;5.90;;
41446;SDS011;27185;52.040;4.490;2023-12-22T06:34:35;35.80;;;6.03;;
41446;SDS011;27185;52.040;4.490;2023-12-22T06:37:21;36.75;;;6.82;;
41446;SDS011;27185;52.040;4.490;2023-12-22T06:40:07;26.90;;;5.53;;
41446;SDS011;27185;52.040;4.490;2023-12-22T06:42:53;33.72;;;6.25;;
41446;SDS011;27185;52.040;4.490;2023-12-22T06:45:39;40.30;;;6.80;;
41446;SDS011;27185;52.040;4.490;2023-12-22T06:48:26;35.90;;;6.85;;
41446;SDS011;27185;52.040;4.490;2023-12-22T06:51:18;30.90;;;5.10;;
41446;SDS011;27185;52.040;4.490;2023-12-22T06:54:04;31.13;;;5.75;;
41446;SDS011;27185;52.040;4.490;2023-12-22T06:56:50;31.90;;;5.22;;
41446;SDS011;27185;52.040;4.490;2023-12-22T06:59:41;30.95;;;6.05;;
41446;SDS011;27185;52.040;4.490;2023-12-22T07:02:28;32.60;;;5.63;;
41446;SDS011;27185;52.040;4.490;2023-12-22T07:08:08;32.03;;;5.53;;
41446;SDS011;27185;52.040;4.490;2023-12-22T07:11:06;25.75;;;5.40;;
41446;SDS011;27185;52.040;4.490;2023-12-22T07:13:52;30.25;;;5.32;;
41446;SDS011;27185;52.040;4.490;2023-12-22T07:16:38;26.58;;;4.47;;
41446;SDS011;27185;52.040;4.490;2023-12-22T07:19:24;27.00;;;4.60;;
41446;SDS011;27185;52.040;4.490;2023-12-22T07:22:09;24.65;;;4.38;;
41446;SDS011;27185;52.040;4.490;2023-12-22T07:24:55;27.73;;;4.78;;
41446;SDS011;27185;52.040;4.490;2023-12-22T07:27:41;29.65;;;4.97;;
41446;SDS011;27185;52.040;4.490;2023-12-22T07:30:36;23.05;;;4.72;;
41446;SDS011;27185;52.040;4.490;2023-12-22T07:33:22;24.77;;;4.38;;
41446;SDS011;27185;52.040;4.490;2023-12-22T07:36:07;21.25;;;4.00;;
41446;SDS011;27185;52.040;4.490;2023-12-22T07:38:53;23.85;;;3.88;;
41446;SDS011;27185;52.040;4.490;2023-12-22T07:41:39;29.25;;;5.03;;
41446;SDS011;27185;52.040;4.490;2023-12-22T07:44:28;27.70;;;4.32;;
41446;SDS011;27185;52.040;4.490;2023-12-22T07:47:14;24.90;;;3.92;;
41446;SDS011;27185;52.040;4.490;2023-12-22T07:49:59;22.45;;;3.65;;
41446;SDS011;27185;52.040;4.490;2023-12-22T07:52:45;26.35;;;4.65;;
41446;SDS011;27185;52.040;4.490;2023-12-22T07:55:30;29.45;;;4.07;;
41446;SDS011;27185;52.040;4.490;2023-12-22T07:58:16;21.67;;;2.90;;
41446;SDS011;27185;52.040;4.490;2023-12-22T08:01:02;22.65;;;3.17;;
41446;SDS011;27185;52.040;4.490;2023-12-22T08:03:49;25.27;;;2.95;;
41446;SDS011;27185;52.040;4.490;2023-12-22T08:06:35;18.15;;;2.75;;
41446;SDS011;27185;52.040;4.490;2023-12-22T08:09:20;20.65;;;3.40;;
41446;SDS011;27185;52.040;4.490;2023-12-22T08:12:07;17.90;;;3.05;;
41446;SDS011;27185;52.040;4.490;2023-12-22T08:14:53;24.95;;;3.38;;
41446;SDS011;27185;52.040;4.490;2023-12-22T08:17:46;14.45;;;2.45;;
41446;SDS011;27185;52.040;4.490;2023-12-22T08:20:33;18.40;;;2.35;;
41446;SDS011;27185;52.040;4.490;2023-12-22T08:23:18;15.52;;;2.13;;
41446;SDS011;27185;52.040;4.490;2023-12-22T08:26:04;15.18;;;1.83;;
41446;SDS011;27185;52.040;4.490;2023-12-22T08:28:49;13.25;;;1.88;;
41446;SDS011;27185;52.040;4.490;2023-12-22T08:31:35;19.27;;;1.92;;
41446;SDS011;27185;52.040;4.490;2023-12-22T08:34:21;11.85;;;1.42;;
41446;SDS011;27185;52.040;4.490;2023-12-22T08:37:07;8.80;;;1.52;;
41446;SDS011;27185;52.040;4.490;2023-12-22T08:39:54;9.45;;;1.40;;
41446;SDS011;27185;52.040;4.490;2023-12-22T08:42:41;13.55;;;1.95;;
41446;SDS011;27185;52.040;4.490;2023-12-22T08:45:27;11.02;;;1.48;;
41446;SDS011;27185;52.040;4.490;2023-12-22T08:48:13;16.45;;;2.03;;
41446;SDS011;27185;52.040;4.490;2023-12-22T08:50:59;17.73;;;2.42;;
41446;SDS011;27185;52.040;4.490;2023-12-22T08:53:44;17.33;;;1.58;;
41446;SDS011;27185;52.040;4.490;2023-12-22T08:56:30;16.38;;;2.05;;
41446;SDS011;27185;52.040;4.490;2023-12-22T08:59:22;16.67;;;1.63;;
41446;SDS011;27185;52.040;4.490;2023-12-22T09:02:11;10.55;;;1.50;;
41446;SDS011;27185;52.040;4.490;2023-12-22T09:04:56;9.10;;;0.98;;
41446;SDS011;27185;52.040;4.490;2023-12-22T09:07:42;13.20;;;1.60;;
41446;SDS011;27185;52.040;4.490;2023-12-22T09:10:38;11.43;;;1.73;;
41446;SDS011;27185;52.040;4.490;2023-12-22T09:13:27;10.43;;;1.33;;
41446;SDS011;27185;52.040;4.490;2023-12-22T09:16:13;5.97;;;0.70;;
41446;SDS011;27185;52.040;4.490;2023-12-22T09:19:08;9.63;;;1.00;;
41446;SDS011;27185;52.040;4.490;2023-12-22T09:21:54;10.85;;;1.35;;
41446;SDS011;27185;52.040;4.490;2023-12-22T09:24:39;8.70;;;1.08;;
41446;SDS011;27185;52.040;4.490;2023-12-22T09:27:25;12.35;;;1.35;;
41446;SDS011;27185;52.040;4.490;2023-12-22T09:30:16;11.68;;;1.10;;
41446;SDS011;27185;52.040;4.490;2023-12-22T09:33:02;9.63;;;1.33;;
41446;SDS011;27185;52.040;4.490;2023-12-22T09:35:49;11.88;;;2.05;;
41446;SDS011;27185;52.040;4.490;2023-12-22T09:38:36;8.75;;;1.20;;
41446;SDS011;27185;52.040;4.490;2023-12-22T09:41:21;8.73;;;1.08;;
41446;SDS011;27185;52.040;4.490;2023-12-22T09:44:07;8.27;;;1.35;;
41446;SDS011;27185;52.040;4.490;2023-12-22T09:46:52;13.52;;;1.90;;
41446;SDS011;27185;52.040;4.490;2023-12-22T09:49:41;8.82;;;0.98;;
41446;SDS011;27185;52.040;4.490;2023-12-22T09:52:27;11.15;;;1.63;;
41446;SDS011;27185;52.040;4.490;2023-12-22T09:55:14;8.50;;;1.38;;
41446;SDS011;27185;52.040;4.490;2023-12-22T09:58:00;13.80;;;2.10;;
41446;SDS011;27185;52.040;4.490;2023-12-22T10:00:47;6.30;;;1.10;;
41446;SDS011;27185;52.040;4.490;2023-12-22T10:03:35;8.07;;;1.80;;
41446;SDS011;27185;52.040;4.490;2023-12-22T10:06:22;11.65;;;1.52;;
41446;SDS011;27185;52.040;4.490;2023-12-22T10:09:09;13.27;;;1.60;;
41446;SDS011;27185;52.040;4.490;2023-12-22T10:14:43;10.25;;;1.42;;
41446;SDS011;27185;52.040;4.490;2023-12-22T10:17:30;8.27;;;1.08;;
41446;SDS011;27185;52.040;4.490;2023-12-22T10:20:16;10.43;;;1.38;;
41446;SDS011;27185;52.040;4.490;2023-12-22T10:23:02;9.73;;;1.15;;
41446;SDS011;27185;52.040;4.490;2023-12-22T10:25:48;9.15;;;1.48;;
41446;SDS011;27185;52.040;4.490;2023-12-22T10:28:36;12.40;;;1.55;;
41446;SDS011;27185;52.040;4.490;2023-12-22T10:31:27;14.77;;;1.38;;
41446;SDS011;27185;52.040;4.490;2023-12-22T10:34:25;8.25;;;1.38;;
41446;SDS011;27185;52.040;4.490;2023-12-22T10:37:10;11.43;;;1.27;;
41446;SDS011;27185;52.040;4.490;2023-12-22T10:39:57;6.18;;;1.02;;
41446;SDS011;27185;52.040;4.490;2023-12-22T10:42:43;9.10;;;1.50;;
41446;SDS011;27185;52.040;4.490;2023-12-22T10:45:29;10.63;;;1.00;;
41446;SDS011;27185;52.040;4.490;2023-12-22T10:48:15;10.98;;;1.63;;
41446;SDS011;27185;52.040;4.490;2023-12-22T10:51:03;7.65;;;1.10;;
41446;SDS011;27185;52.040;4.490;2023-12-22T10:53:53;9.27;;;1.10;;
41446;SDS011;27185;52.040;4.490;2023-12-22T10:56:39;12.07;;;1.90;;
41446;SDS011;27185;52.040;4.490;2023-12-22T10:59:28;12.00;;;1.38;;
41446;SDS011;27185;52.040;4.490;2023-12-22T11:02:18;9.73;;;1.33;;
41446;SDS011;27185;52.040;4.490;2023-12-22T11:05:10;10.10;;;1.42;;
41446;SDS011;27185;52.040;4.490;2023-12-22T11:07:57;11.55;;;1.48;;
41446;SDS011;27185;52.040;4.490;2023-12-22T11:10:47;8.60;;;1.50;;
41446;SDS011;27185;52.040;4.490;2023-12-22T11:13:38;12.15;;;2.00;;
41446;SDS011;27185;52.040;4.490;2023-12-22T11:16:25;11.23;;;1.95;;
41446;SDS011;27185;52.040;4.490;2023-12-22T11:22:03;11.20;;;1.98;;
41446;SDS011;27185;52.040;4.490;2023-12-22T11:24:51;13.57;;;1.60;;
41446;SDS011;27185;52.040;4.490;2023-12-22T11:27:40;9.90;;;1.40;;
41446;SDS011;27185;52.040;4.490;2023-12-22T11:30:29;9.10;;;1.15;;
41446;SDS011;27185;52.040;4.490;2023-12-22T11:33:16;9.27;;;1.20;;
41446;SDS011;27185;52.040;4.490;2023-12-22T11:36:03;11.02;;;1.52;;
41446;SDS011;27185;52.040;4.490;2023-12-22T11:38:53;8.18;;;1.30;;
41446;SDS011;27185;52.040;4.490;2023-12-22T11:41:39;9.75;;;1.70;;
41446;SDS011;27185;52.040;4.490;2023-12-22T11:44:26;9.10;;;1.43;;
41446;SDS011;27185;52.040;4.490;2023-12-22T11:47:13;10.57;;;1.67;;
41446;SDS011;27185;52.040;4.490;2023-12-22T11:49:59;13.52;;;2.25;;
41446;SDS011;27185;52.040;4.490;2023-12-22T11:52:46;13.88;;;1.88;;
41446;SDS011;27185;52.040;4.490;2023-12-22T11:58:45;10.52;;;1.10;;
41446;SDS011;27185;52.040;4.490;2023-12-22T12:01:36;12.20;;;2.10;;
41446;SDS011;27185;52.040;4.490;2023-12-22T12:04:29;10.98;;;1.83;;
41446;SDS011;27185;52.040;4.490;2023-12-22T12:13:23;10.00;;;1.25;;
41446;SDS011;27185;52.040;4.490;2023-12-22T12:16:11;9.18;;;2.10;;
41446;SDS011;27185;52.040;4.490;2023-12-22T12:19:23;11.65;;;1.80;;
41446;SDS011;27185;52.040;4.490;2023-12-22T12:22:11;11.65;;;1.55;;
41446;SDS011;27185;52.040;4.490;2023-12-22T12:24:58;9.93;;;1.38;;
41446;SDS011;27185;52.040;4.490;2023-12-22T12:27:47;13.20;;;1.92;;
41446;SDS011;27185;52.040;4.490;2023-12-22T12:30:33;15.30;;;1.65;;
41446;SDS011;27185;52.040;4.490;2023-12-22T12:33:21;15.70;;;1.77;;
41446;SDS011;27185;52.040;4.490;2023-12-22T12:36:08;10.07;;;1.40;;
41446;SDS011;27185;52.040;4.490;2023-12-22T12:38:59;8.50;;;0.95;;
41446;SDS011;27185;52.040;4.490;2023-12-22T12:41:56;11.32;;;1.85;;
41446;SDS011;27185;52.040;4.490;2023-12-22T12:44:44;10.45;;;1.55;;
41446;SDS011;27185;52.040;4.490;2023-12-22T12:50:43;15.43;;;2.05;;
41446;SDS011;27185;52.040;4.490;2023-12-22T12:53:30;9.45;;;1.17;;
41446;SDS011;27185;52.040;4.490;2023-12-22T12:56:21;10.73;;;1.73;;
41446;SDS011;27185;52.040;4.490;2023-12-22T12:59:07;10.73;;;1.60;;
41446;SDS011;27185;52.040;4.490;2023-12-22T13:01:56;14.13;;;1.90;;
41446;SDS011;27185;52.040;4.490;2023-12-22T13:04:46;13.05;;;2.10;;
41446;SDS011;27185;52.040;4.490;2023-12-22T13:07:31;11.38;;;1.52;;
41446;SDS011;27185;52.040;4.490;2023-12-22T13:10:34;10.13;;;1.13;;
41446;SDS011;27185;52.040;4.490;2023-12-22T13:13:20;13.77;;;2.20;;
41446;SDS011;27185;52.040;4.490;2023-12-22T13:16:05;16.15;;;2.17;;
41446;SDS011;27185;52.040;4.490;2023-12-22T13:18:51;12.63;;;1.90;;
41446;SDS011;27185;52.040;4.490;2023-12-22T13:21:37;17.40;;;2.35;;
41446;SDS011;27185;52.040;4.490;2023-12-22T13:24:23;14.93;;;2.05;;
41446;SDS011;27185;52.040;4.490;2023-12-22T13:27:10;17.43;;;2.00;;
41446;SDS011;27185;52.040;4.490;2023-12-22T13:29:56;13.95;;;2.65;;
41446;SDS011;27185;52.040;4.490;2023-12-22T13:32:41;16.55;;;2.25;;
41446;SDS011;27185;52.040;4.490;2023-12-22T13:35:31;12.32;;;1.85;;
41446;SDS011;27185;52.040;4.490;2023-12-22T13:38:17;14.63;;;1.95;;
41446;SDS011;27185;52.040;4.490;2023-12-22T13:41:04;13.05;;;2.05;;
41446;SDS011;27185;52.040;4.490;2023-12-22T13:43:54;15.10;;;2.17;;
41446;SDS011;27185;52.040;4.490;2023-12-22T13:49:33;13.27;;;1.83;;
41446;SDS011;27185;52.040;4.490;2023-12-22T13:52:28;11.65;;;2.38;;
41446;SDS011;27185;52.040;4.490;2023-12-22T13:55:20;14.45;;;2.22;;
41446;SDS011;27185;52.040;4.490;2023-12-22T13:58:10;20.52;;;2.17;;
41446;SDS011;27185;52.040;4.490;2023-12-22T14:00:57;15.15;;;2.03;;
41446;SDS011;27185;52.040;4.490;2023-12-22T14:03:43;18.48;;;2.35;;
41446;SDS011;27185;52.040;4.490;2023-12-22T14:06:29;26.98;;;3.35;;
41446;SDS011;27185;52.040;4.490;2023-12-22T14:09:15;21.27;;;2.47;;
41446;SDS011;27185;52.040;4.490;2023-12-22T14:12:04;16.63;;;2.85;;
41446;SDS011;27185;52.040;4.490;2023-12-22T14:14:56;21.45;;;3.05;;
41446;SDS011;27185;52.040;4.490;2023-12-22T14:17:42;21.13;;;3.30;;
41446;SDS011;27185;52.040;4.490;2023-12-22T14:23:41;17.10;;;2.85;;
41446;SDS011;27185;52.040;4.490;2023-12-22T14:26:27;15.73;;;2.78;;
41446;SDS011;27185;52.040;4.490;2023-12-22T14:29:12;15.38;;;2.95;;
41446;SDS011;27185;52.040;4.490;2023-12-22T14:31:58;23.27;;;2.83;;
41446;SDS011;27185;52.040;4.490;2023-12-22T14:35:02;17.85;;;2.58;;
41446;SDS011;27185;52.040;4.490;2023-12-22T14:37:48;10.95;;;1.83;;
41446;SDS011;27185;52.040;4.490;2023-12-22T14:40:34;16.23;;;2.85;;
41446;SDS011;27185;52.040;4.490;2023-12-22T14:43:22;12.02;;;2.28;;
41446;SDS011;27185;52.040;4.490;2023-12-22T14:46:08;12.70;;;1.70;;
41446;SDS011;27185;52.040;4.490;2023-12-22T14:48:54;8.77;;;1.77;;
41446;SDS011;27185;52.040;4.490;2023-12-22T14:51:40;14.65;;;2.42;;
41446;SDS011;27185;52.040;4.490;2023-12-22T14:54:44;17.45;;;2.72;;
41446;SDS011;27185;52.040;4.490;2023-12-22T14:57:29;13.43;;;2.22;;
41446;SDS011;27185;52.040;4.490;2023-12-22T15:00:15;14.77;;;2.80;;
41446;SDS011;27185;52.040;4.490;2023-12-22T15:03:06;15.95;;;2.70;;
41446;SDS011;27185;52.040;4.490;2023-12-22T15:05:53;19.98;;;2.90;;
41446;SDS011;27185;52.040;4.490;2023-12-22T15:08:38;17.25;;;2.08;;
41446;SDS011;27185;52.040;4.490;2023-12-22T15:11:26;14.23;;;2.08;;
41446;SDS011;27185;52.040;4.490;2023-12-22T15:14:12;16.65;;;2.45;;
41446;SDS011;27185;52.040;4.490;2023-12-22T15:16:58;20.00;;;2.45;;
41446;SDS011;27185;52.040;4.490;2023-12-22T15:19:43;18.08;;;3.28;;
41446;SDS011;27185;52.040;4.490;2023-12-22T15:22:29;17.52;;;2.35;;
41446;SDS011;27185;52.040;4.490;2023-12-22T15:25:15;16.00;;;2.88;;
41446;SDS011;27185;52.040;4.490;2023-12-22T15:28:06;14.88;;;2.47;;
41446;SDS011;27185;52.040;4.490;2023-12-22T15:30:53;11.20;;;1.92;;
41446;SDS011;27185;52.040;4.490;2023-12-22T15:33:39;14.00;;;2.17;;
41446;SDS011;27185;52.040;4.490;2023-12-22T15:36:24;15.48;;;2.60;;
41446;SDS011;27185;52.040;4.490;2023-12-22T15:42:27;17.00;;;2.03;;
41446;SDS011;27185;52.040;4.490;2023-12-22T15:45:12;18.38;;;2.17;;
41446;SDS011;27185;52.040;4.490;2023-12-22T15:47:58;15.07;;;2.25;;
41446;SDS011;27185;52.040;4.490;2023-12-22T15:50:46;15.25;;;1.70;;
41446;SDS011;27185;52.040;4.490;2023-12-22T15:53:33;11.73;;;1.77;;
41446;SDS011;27185;52.040;4.490;2023-12-22T15:56:38;15.48;;;1.90;;
41446;SDS011;27185;52.040;4.490;2023-12-22T15:59:24;15.75;;;2.60;;
41446;SDS011;27185;52.040;4.490;2023-12-22T16:02:17;13.90;;;2.20;;
41446;SDS011;27185;52.040;4.490;2023-12-22T16:05:08;20.52;;;2.60;;
41446;SDS011;27185;52.040;4.490;2023-12-22T16:07:56;12.15;;;1.65;;
41446;SDS011;27185;52.040;4.490;2023-12-22T16:10:47;13.85;;;2.92;;
41446;SDS011;27185;52.040;4.490;2023-12-22T16:13:33;17.48;;;2.92;;
41446;SDS011;27185;52.040;4.490;2023-12-22T16:16:19;21.08;;;2.58;;
41446;SDS011;27185;52.040;4.490;2023-12-22T16:19:08;11.65;;;2.13;;
41446;SDS011;27185;52.040;4.490;2023-12-22T16:21:53;24.80;;;3.20;;
41446;SDS011;27185;52.040;4.490;2023-12-22T16:24:39;17.45;;;2.60;;
41446;SDS011;27185;52.040;4.490;2023-12-22T16:27:25;15.68;;;2.42;;
41446;SDS011;27185;52.040;4.490;2023-12-22T16:30:11;14.75;;;2.25;;
41446;SDS011;27185;52.040;4.490;2023-12-22T16:32:56;16.55;;;2.58;;
41446;SDS011;27185;52.040;4.490;2023-12-22T16:35:57;18.65;;;2.53;;
41446;SDS011;27185;52.040;4.490;2023-12-22T16:38:43;17.75;;;2.78;;
41446;SDS011;27185;52.040;4.490;2023-12-22T16:41:28;16.95;;;2.63;;
41446;SDS011;27185;52.040;4.490;2023-12-22T16:44:17;15.75;;;2.25;;
41446;SDS011;27185;52.040;4.490;2023-12-22T16:47:06;14.77;;;2.30;;
41446;SDS011;27185;52.040;4.490;2023-12-22T16:49:52;17.35;;;2.30;;
41446;SDS011;27185;52.040;4.490;2023-12-22T16:52:38;18.48;;;3.65;;
41446;SDS011;27185;52.040;4.490;2023-12-22T16:55:24;13.70;;;2.78;;
41446;SDS011;27185;52.040;4.490;2023-12-22T16:58:10;16.08;;;2.45;;
41446;SDS011;27185;52.040;4.490;2023-12-22T17:00:56;25.17;;;2.42;;
41446;SDS011;27185;52.040;4.490;2023-12-22T17:03:54;18.35;;;2.40;;
41446;SDS011;27185;52.040;4.490;2023-12-22T17:06:49;20.58;;;3.03;;
41446;SDS011;27185;52.040;4.490;2023-12-22T17:09:37;14.93;;;2.35;;